Time;durP1;ratioP1;P1;durP2;ratioP2;P2;SDS_P1;SDS_P2;PMS_P1;PMS_P2;Temp;Humidity;BMP_temperature;BMP_pressure;BME280_temperature;BME280_humidity;BME280_pressure;Samples;Min_cycle;Max_cycle;Signal;HPM_P1;HPM_P2
2023/10/05 00:02:23;;;;;;;8.75;3.33;;;;;;;10.47;nan;102063.78;10352865;28;20046;-79
2023/10/05 00:07:26;;;;;;;15.30;4.05;;;;;;;10.63;nan;102053.53;10364232;28;20496;-80
2023/10/05 00:12:27;;;;;;;16.13;3.85;;;;;;;10.71;nan;102052.34;10362092;28;20049;-78
2023/10/05 00:17:29;;;;;;;12.00;3.50;;;;;;;10.75;nan;102057.78;10362632;28;20046;-80
2023/10/05 00:22:31;;;;;;;10.05;3.75;;;;;;;10.72;nan;102048.91;10363432;28;20041;-80
2023/10/05 00:27:31;;;;;;;14.73;4.37;;;;;;;10.79;nan;102062.41;10362058;28;20046;-79
2023/10/05 00:32:35;;;;;;;15.02;4.30;;;;;;;10.82;nan;102062.63;10362894;28;20137;-79
2023/10/05 00:37:36;;;;;;;20.70;4.40;;;;;;;10.91;nan;102065.84;10362318;28;20057;-78
2023/10/05 00:42:36;;;;;;;13.48;3.85;;;;;;;10.97;nan;102073.16;10362989;28;20062;-79
2023/10/05 00:47:37;;;;;;;11.57;3.15;;;;;;;10.95;nan;102067.84;10360465;28;20176;-79
2023/10/05 00:52:37;;;;;;;12.05;3.35;;;;;;;10.93;nan;102068.53;10362186;28;20413;-80
2023/10/05 00:57:39;;;;;;;7.28;2.92;;;;;;;10.97;nan;102068.84;10376892;28;20045;-79
2023/10/05 01:03:00;;;;;;;6.10;2.85;;;;;;;10.98;nan;102082.84;10377123;28;20033;-79
2023/10/05 01:08:04;;;;;;;8.25;4.97;;;;;;;10.96;nan;102082.75;10360293;28;20049;-80
2023/10/05 01:13:21;;;;;;;9.23;3.60;;;;;;;11.03;nan;102073.56;10358628;28;20041;-79
2023/10/05 01:18:25;;;;;;;9.25;3.90;;;;;;;11.00;nan;102078.59;10322368;28;20050;-79
2023/10/05 01:23:37;;;;;;;12.05;6.10;;;;;;;11.04;nan;102083.25;10362389;28;20104;-80
2023/10/05 01:28:41;;;;;;;8.25;3.53;;;;;;;11.04;nan;102088.47;10358518;28;20042;-79
2023/10/05 01:33:43;;;;;;;10.07;3.85;;;;;;;10.94;nan;102083.44;10360443;28;20045;-80
2023/10/05 01:38:45;;;;;;;11.38;3.75;;;;;;;10.92;nan;102087.69;10375391;28;20053;-79
2023/10/05 01:43:45;;;;;;;9.98;4.00;;;;;;;10.89;nan;102091.03;10359433;28;20371;-80
2023/10/05 01:48:46;;;;;;;16.77;6.13;;;;;;;10.86;nan;102089.09;10359385;28;20053;-78
2023/10/05 01:53:51;;;;;;;9.85;3.67;;;;;;;10.87;nan;102090.91;10359256;28;20071;-79
2023/10/05 01:58:54;;;;;;;13.70;3.33;;;;;;;10.82;nan;102080.94;10348705;28;20537;-79
2023/10/05 02:03:57;;;;;;;8.35;3.80;;;;;;;10.76;nan;102067.44;10358989;28;20044;-79
2023/10/05 02:08:58;;;;;;;7.50;3.17;;;;;;;10.66;nan;102071.16;10359505;28;20038;-79
2023/10/05 02:14:03;;;;;;;15.27;3.53;;;;;;;10.61;nan;102069.94;10357902;28;20069;-80
2023/10/05 02:19:06;;;;;;;12.20;3.42;;;;;;;10.59;nan;102080.31;10356099;28;20083;-79
2023/10/05 02:24:19;;;;;;;9.15;2.72;;;;;;;10.61;nan;102069.94;10356609;28;20034;-78
2023/10/05 02:29:19;;;;;;;10.40;3.47;;;;;;;10.69;nan;102072.28;10357701;28;20049;-79
2023/10/05 02:34:20;;;;;;;10.70;4.72;;;;;;;10.67;nan;102059.88;10358434;28;20056;-79
2023/10/05 02:39:24;;;;;;;8.25;3.90;;;;;;;10.66;nan;102069.47;10357822;28;20041;-78
2023/10/05 02:49:25;;;;;;;15.55;4.00;;;;;;;10.49;nan;102068.31;10357908;28;20448;-79
2023/10/05 02:54:27;;;;;;;15.77;3.72;;;;;;;10.47;nan;102059.44;10357319;28;20119;-78
2023/10/05 02:59:29;;;;;;;11.02;3.25;;;;;;;10.41;nan;102056.41;10357777;28;20054;-78
2023/10/05 03:04:44;;;;;;;12.15;4.40;;;;;;;10.35;nan;102055.97;10356048;28;20125;-78
2023/10/05 03:09:47;;;;;;;8.57;3.65;;;;;;;10.35;nan;102048.13;10371487;28;20100;-78
2023/10/05 03:14:50;;;;;;;14.13;3.60;;;;;;;10.34;nan;102051.53;10353626;28;20043;-77
2023/10/05 03:19:50;;;;;;;9.48;3.45;;;;;;;10.38;nan;102056.19;10357646;28;20034;-79
2023/10/05 03:24:51;;;;;;;11.30;4.68;;;;;;;10.38;nan;102050.94;10354231;28;20477;-79
2023/10/05 03:29:52;;;;;;;9.50;3.97;;;;;;;10.29;nan;102051.25;10353698;28;20785;-79
2023/10/05 03:34:53;;;;;;;13.30;4.15;;;;;;;10.26;nan;102051.94;10351460;28;20164;-79
2023/10/05 03:40:02;;;;;;;11.40;5.07;;;;;;;10.33;nan;102047.09;10358813;28;20092;-79
2023/10/05 03:45:03;;;;;;;8.52;3.53;;;;;;;10.45;nan;102047.09;10349145;28;20038;-79
2023/10/05 03:50:07;;;;;;;12.03;3.77;;;;;;;10.43;nan;102047.88;10331773;28;20064;-78
2023/10/05 03:55:11;;;;;;;14.93;3.78;;;;;;;10.32;nan;102055.75;10319735;28;20852;-78
2023/10/05 04:00:55;;;;;;;11.18;3.38;;;;;;;10.18;nan;102047.88;10319361;28;20066;-78
2023/10/05 04:05:39;;;;;;;12.68;4.70;;;;;;;10.14;nan;102057.25;10353593;28;20497;-79
2023/10/05 04:10:46;;;;;;;6.50;2.92;;;;;;;10.16;nan;102054.72;10362409;28;20398;-79
2023/10/05 04:15:46;;;;;;;17.58;4.68;;;;;;;10.17;nan;102064.38;10359006;28;20437;-79
2023/10/05 04:20:47;;;;;;;21.80;4.10;;;;;;;10.12;nan;102057.94;10358475;28;20129;-79
2023/10/05 04:25:51;;;;;;;13.48;4.78;;;;;;;10.18;nan;102058.34;10361111;28;20378;-79
2023/10/05 04:30:52;;;;;;;8.50;3.60;;;;;;;10.17;nan;102056.53;10358476;28;20052;-78
2023/10/05 04:35:53;;;;;;;13.80;6.00;;;;;;;10.15;nan;102055.53;10358046;28;20409;-79
2023/10/05 04:40:54;;;;;;;10.38;3.95;;;;;;;10.12;nan;102063.16;10379614;28;20045;-79
2023/10/05 04:45:55;;;;;;;14.43;4.50;;;;;;;10.22;nan;102064.72;10356334;28;20184;-78
2023/10/05 04:50:59;;;;;;;13.90;4.45;;;;;;;10.14;nan;102053.72;10361114;28;20292;-77
2023/10/05 04:56:27;;;;;;;13.15;5.15;;;;;;;9.95;nan;102051.56;10362320;28;20038;-79
2023/10/05 05:01:28;;;;;;;7.07;3.45;;;;;;;9.97;nan;102055.19;10358100;28;20034;-82
2023/10/05 05:06:32;;;;;;;11.43;3.40;;;;;;;9.99;nan;102049.25;10354497;28;20064;-81
2023/10/05 05:11:32;;;;;;;12.00;5.00;;;;;;;10.07;nan;102051.47;10318984;28;20445;-78
2023/10/05 05:16:33;;;;;;;13.00;4.28;;;;;;;10.07;nan;102041.00;10347261;28;20132;-79
2023/10/05 05:21:34;;;;;;;9.95;3.78;;;;;;;10.11;nan;102040.41;10357944;28;20583;-81
2023/10/05 05:26:35;;;;;;;8.55;4.72;;;;;;;10.02;nan;102032.88;10353881;28;20050;-80
2023/10/05 05:31:35;;;;;;;18.27;4.43;;;;;;;10.12;nan;102040.53;10357249;28;20058;-78
2023/10/05 05:36:36;;;;;;;16.25;5.25;;;;;;;10.07;nan;102048.84;10361868;28;20121;-78
2023/10/05 05:41:37;;;;;;;14.88;4.50;;;;;;;10.06;nan;102058.44;10349282;28;20121;-82
2023/10/05 05:46:37;;;;;;;17.58;4.90;;;;;;;10.11;nan;102064.88;10353329;28;20132;-81
2023/10/05 05:51:38;;;;;;;13.20;4.93;;;;;;;10.06;nan;102060.13;10326920;28;20083;-78
2023/10/05 05:56:38;;;;;;;8.27;3.75;;;;;;;10.08;nan;102068.97;10353598;28;20367;-79
2023/10/05 06:01:39;;;;;;;8.70;5.00;;;;;;;10.11;nan;102077.03;10350851;28;20125;-78
2023/10/05 06:06:39;;;;;;;12.40;5.90;;;;;;;10.24;nan;102079.69;10353026;28;20058;-82
2023/10/05 06:11:40;;;;;;;12.02;3.97;;;;;;;10.36;nan;102087.50;10336660;28;20042;-85
2023/10/05 06:16:40;;;;;;;11.55;4.55;;;;;;;10.47;nan;102085.63;10348788;28;20053;-81
2023/10/05 06:21:42;;;;;;;13.50;3.97;;;;;;;10.59;nan;102080.31;10356032;28;20034;-79
2023/10/05 06:26:45;;;;;;;12.63;4.57;;;;;;;10.67;nan;102084.34;10348250;28;20045;-83
2023/10/05 06:31:45;;;;;;;12.38;4.90;;;;;;;10.75;nan;102092.72;10358270;28;20124;-81
2023/10/05 06:36:46;;;;;;;9.52;3.58;;;;;;;10.84;nan;102089.81;10350456;28;20034;-81
2023/10/05 06:41:46;;;;;;;12.30;3.63;;;;;;;10.94;nan;102087.00;10388065;28;20081;-81
2023/10/05 06:46:48;;;;;;;8.88;3.22;;;;;;;11.03;nan;102091.91;10359117;28;20065;-80
2023/10/05 06:51:48;;;;;;;12.00;3.50;;;;;;;11.16;nan;102106.72;10357739;28;20049;-81
2023/10/05 06:56:49;;;;;;;10.20;3.97;;;;;;;11.26;nan;102114.38;10356212;28;20394;-80
2023/10/05 07:01:52;;;;;;;9.48;3.97;;;;;;;11.43;nan;102114.56;10353846;28;20077;-81
2023/10/05 07:06:52;;;;;;;12.25;4.60;;;;;;;11.59;nan;102113.81;10359226;28;20510;-81
2023/10/05 07:11:53;;;;;;;13.38;4.38;;;;;;;11.66;nan;102121.25;10358062;28;20042;-80
2023/10/05 07:16:55;;;;;;;15.43;4.57;;;;;;;11.81;nan;102123.03;10366858;28;20134;-81
2023/10/05 07:21:55;;;;;;;8.10;3.67;;;;;;;11.86;nan;102119.91;10365489;28;20042;-80
2023/10/05 07:26:56;;;;;;;12.38;4.35;;;;;;;12.02;nan;102128.75;10361519;28;20512;-81
2023/10/05 07:31:57;;;;;;;9.00;3.67;;;;;;;12.12;nan;102139.00;10364868;28;20034;-80
2023/10/05 07:36:57;;;;;;;8.50;4.07;;;;;;;12.33;nan;102146.41;10363868;28;20046;-81
2023/10/05 07:42:01;;;;;;;7.80;3.75;;;;;;;12.59;nan;102141.81;10365400;28;20473;-80
2023/10/05 07:47:02;;;;;;;20.13;4.35;;;;;;;12.88;nan;102143.53;10379787;28;20048;-80
2023/10/05 07:52:03;;;;;;;13.07;4.03;;;;;;;13.16;nan;102145.13;10360793;28;20401;-82
2023/10/05 07:57:09;;;;;;;14.13;4.40;;;;;;;13.42;nan;102161.50;10345342;28;20062;-81
2023/10/05 08:02:13;;;;;;;8.20;4.10;;;;;;;13.49;nan;102162.78;10339560;28;20039;-81
2023/10/05 08:07:15;;;;;;;10.20;4.28;;;;;;;13.56;nan;102166.66;10341021;28;20041;-83
2023/10/05 08:12:15;;;;;;;13.95;3.90;;;;;;;13.82;nan;102172.44;10358146;28;20053;-79
2023/10/05 08:17:17;;;;;;;10.73;4.28;;;;;;;14.06;nan;102167.63;10362791;28;20061;-80
2023/10/05 08:22:20;;;;;;;15.23;4.13;;;;;;;14.21;nan;102175.44;10373086;28;20064;-82
2023/10/05 08:27:22;;;;;;;12.05;4.22;;;;;;;14.39;nan;102176.41;10373361;28;20038;-81
2023/10/05 08:32:25;;;;;;;11.65;4.70;;;;;;;14.46;nan;102172.41;10370095;28;20498;-82
2023/10/05 08:37:27;;;;;;;7.07;4.07;;;;;;;14.29;nan;102176.75;10353243;28;20052;-82
2023/10/05 08:42:34;;;;;;;9.65;3.88;;;;;;;14.33;nan;102177.84;10343639;28;20087;-83
2023/10/05 08:47:36;;;;;;;8.73;4.18;;;;;;;14.64;nan;102190.00;10356757;28;20053;-83
2023/10/05 08:52:40;;;;;;;;;;;;;;;14.85;nan;102190.22;10363927;28;20049;-80
2023/10/05 08:57:40;;;;;;;14.80;3.97;;;;;;;14.83;nan;102192.78;10372654;28;19932;-82
2023/10/05 09:02:41;;;;;;;10.80;5.07;;;;;;;14.92;nan;102196.72;10313967;28;1257283;-81
2023/10/05 09:07:43;;;;;;;11.60;4.93;;;;;;;15.12;nan;102206.53;10357208;28;20044;-82
2023/10/05 09:12:46;;;;;;;9.27;4.63;;;;;;;15.15;nan;102200.50;10348203;28;20072;-83
2023/10/05 09:23:07;;;;;;;6.82;4.80;;;;;;;15.23;nan;102216.72;10367231;28;20498;-82
2023/10/05 09:28:14;;;;;;;11.85;3.83;;;;;;;15.31;nan;102230.28;10386458;28;20046;-83
2023/10/05 09:33:18;;;;;;;13.57;3.92;;;;;;;15.26;nan;102253.81;10357561;28;20072;-82
2023/10/05 09:38:21;;;;;;;15.85;3.30;;;;;;;15.14;nan;102259.34;10362950;28;20092;-81
2023/10/05 09:43:22;;;;;;;13.27;4.30;;;;;;;15.18;nan;102263.06;10372150;28;20034;-80
2023/10/05 09:48:24;;;;;;;10.82;4.55;;;;;;;14.95;nan;102271.56;10367662;28;20041;-80
2023/10/05 09:53:25;;;;;;;7.95;3.33;;;;;;;15.16;nan;102264.72;10353133;28;20124;-78
2023/10/05 09:58:25;;;;;;;7.47;3.53;;;;;;;15.32;nan;102266.38;10368963;28;20510;-79
2023/10/05 10:03:26;;;;;;;7.25;3.05;;;;;;;15.17;nan;102267.41;10374788;28;20048;-79
2023/10/05 10:08:29;;;;;;;7.78;3.85;;;;;;;14.98;nan;102261.19;10355473;28;20046;-81
2023/10/05 10:13:37;;;;;;;18.27;5.18;;;;;;;14.96;nan;102261.97;10340704;28;20041;-81
2023/10/05 10:18:37;;;;;;;15.15;4.32;;;;;;;14.82;nan;102264.78;10350775;28;20056;-82
2023/10/05 10:23:39;;;;;;;20.63;5.90;;;;;;;14.77;nan;102266.25;10382737;28;20056;-85
2023/10/05 10:33:49;;;;;;;9.20;3.60;;;;;;;15.01;nan;102265.72;10364862;28;20115;-88
2023/10/05 10:38:50;;;;;;;10.73;3.28;;;;;;;15.35;nan;102266.53;10360919;28;20435;-84
2023/10/05 10:43:54;;;;;;;17.75;5.78;;;;;;;15.60;nan;102273.03;10349812;28;20026;-85
2023/10/05 10:48:58;;;;;;;12.27;4.32;;;;;;;15.90;nan;102265.75;10344646;28;20568;-82
2023/10/05 10:54:06;;;;;;;14.00;3.78;;;;;;;16.11;nan;102268.50;10365010;28;20045;-83
2023/10/05 10:59:10;;;;;;;9.85;3.60;;;;;;;16.58;nan;102270.63;10356358;28;20072;-82
2023/10/05 11:04:32;;;;;;;9.85;3.22;;;;;;;17.11;nan;102257.09;10357721;28;20038;-81
2023/10/05 11:09:37;;;;;;;14.53;3.97;;;;;;;17.62;nan;102256.59;10340695;28;20564;-82
2023/10/05 11:14:38;;;;;;;10.45;4.10;;;;;;;18.12;nan;102261.22;10355635;28;20447;-82
2023/10/05 11:19:40;;;;;;;8.80;3.13;;;;;;;18.84;nan;102272.69;10355358;28;20038;-83
2023/10/05 11:25:14;;;;;;;12.35;4.03;;;;;;;20.41;nan;102272.50;10356907;28;20062;-82
2023/10/05 11:30:24;;;;;;;10.68;3.10;;;;;;;21.84;nan;102286.09;10356709;28;20054;-84
2023/10/05 11:35:40;;;;;;;10.30;3.28;;;;;;;23.22;nan;102295.09;10326470;28;20036;-82
2023/10/05 11:40:50;;;;;;;10.35;4.38;;;;;;;24.62;nan;102309.72;10355898;28;20042;-82
2023/10/05 11:46:17;;;;;;;13.30;4.22;;;;;;;23.69;nan;102316.41;10356281;28;20034;-83
2023/10/05 11:51:19;;;;;;;7.97;3.15;;;;;;;23.07;nan;102301.97;10347749;28;20475;-83
2023/10/05 11:56:20;;;;;;;11.55;3.22;;;;;;;24.23;nan;102310.13;10361058;28;20034;-82
2023/10/05 12:01:24;;;;;;;11.23;2.38;;;;;;;23.58;nan;102305.56;10364372;28;20781;-82
2023/10/05 12:06:25;;;;;;;12.23;3.58;;;;;;;24.52;nan;102299.78;10362719;28;20061;-83
2023/10/05 12:11:29;;;;;;;7.35;3.45;;;;;;;23.58;nan;102308.25;10364423;28;20057;-80
2023/10/05 12:16:32;;;;;;;11.52;3.58;;;;;;;23.14;nan;102298.53;10362748;28;20129;-82
2023/10/05 12:21:34;;;;;;;6.60;3.53;;;;;;;24.05;nan;102296.50;10362584;28;20052;-82
2023/10/05 12:26:34;;;;;;;8.18;2.42;;;;;;;22.59;nan;102303.72;10359925;28;20042;-82
2023/10/05 12:31:35;;;;;;;14.67;2.60;;;;;;;21.81;nan;102295.75;10362033;28;20490;-81
2023/10/05 12:36:35;;;;;;;7.40;3.20;;;;;;;23.83;nan;102299.69;10361963;28;20060;-82
2023/10/05 12:41:42;;;;;;;7.43;2.33;;;;;;;23.86;nan;102314.03;10360951;28;20048;-82
2023/10/05 12:46:45;;;;;;;7.18;2.28;;;;;;;21.69;nan;102307.03;10362402;28;20046;-82
2023/10/05 12:51:47;;;;;;;4.15;1.77;;;;;;;20.93;nan;102310.34;10361861;28;20038;-82
2023/10/05 12:56:50;;;;;;;9.13;3.72;;;;;;;20.18;nan;102299.31;10361283;28;20062;-84
2023/10/05 13:01:57;;;;;;;7.03;2.47;;;;;;;19.81;nan;102296.34;10359289;28;20042;-82
2023/10/05 13:06:57;;;;;;;6.93;2.67;;;;;;;19.32;nan;102288.56;10362368;28;20050;-83
2023/10/05 13:11:58;;;;;;;8.45;2.00;;;;;;;19.56;nan;102294.66;10343921;28;20104;-82
2023/10/05 13:17:00;;;;;;;8.70;1.87;;;;;;;19.44;nan;102293.41;10376862;28;20544;-84
2023/10/05 13:22:04;;;;;;;8.82;2.78;;;;;;;18.96;nan;102301.41;10362587;28;20103;-83
2023/10/05 13:27:07;;;;;;;8.10;2.40;;;;;;;19.64;nan;102302.00;10360648;28;20046;-82
2023/10/05 13:32:12;;;;;;;7.80;2.20;;;;;;;19.60;nan;102307.19;10359469;28;20056;-84
2023/10/05 13:37:13;;;;;;;6.25;2.42;;;;;;;19.25;nan;102291.84;10360752;28;20063;-83
2023/10/05 13:42:25;;;;;;;10.90;2.73;;;;;;;19.42;nan;102294.19;10360820;28;20379;-83
2023/10/05 13:47:29;;;;;;;;;;;;;;;20.63;nan;102288.22;10359467;28;20113;-83
2023/10/05 13:52:33;;;;;;;7.57;2.58;;;;;;;20.95;nan;102298.00;10374358;28;19925;-80
2023/10/05 13:57:33;;;;;;;8.60;3.28;;;;;;;21.99;nan;102289.97;10392024;28;20405;-81
2023/10/05 14:02:34;;;;;;;9.45;2.90;;;;;;;22.50;nan;102283.09;10391252;28;20052;-81
2023/10/05 14:07:34;;;;;;;5.57;1.77;;;;;;;22.69;nan;102284.38;10359313;28;20040;-83
2023/10/05 14:12:35;;;;;;;4.20;1.77;;;;;;;22.84;nan;102283.75;10355402;28;20120;-83
2023/10/05 14:17:37;;;;;;;8.13;2.10;;;;;;;22.46;nan;102289.22;10359293;28;20042;-81
2023/10/05 14:22:38;;;;;;;6.13;2.65;;;;;;;21.02;nan;102288.44;10357845;28;20555;-81
2023/10/05 14:27:39;;;;;;;7.70;3.33;;;;;;;21.36;nan;102276.88;10356833;28;20180;-83
2023/10/05 14:32:40;;;;;;;13.40;2.73;;;;;;;21.65;nan;102276.75;10360066;28;20466;-83
2023/10/05 14:37:42;;;;;;;4.33;1.90;;;;;;;21.52;nan;102277.25;10341266;28;20076;-83
2023/10/05 14:42:43;;;;;;;5.60;1.73;;;;;;;19.71;nan;102268.59;10357517;28;20116;-83
2023/10/05 14:47:44;;;;;;;12.93;2.20;;;;;;;19.06;nan;102269.97;10358081;28;20050;-82
2023/10/05 14:52:49;;;;;;;6.65;2.38;;;;;;;19.34;nan;102259.44;10391560;28;20040;-81
2023/10/05 14:57:51;;;;;;;9.45;2.00;;;;;;;19.04;nan;102255.75;10356729;28;20084;-82
2023/10/05 15:02:52;;;;;;;4.82;2.25;;;;;;;19.20;nan;102256.28;10359449;28;20038;-82
2023/10/05 15:07:58;;;;;;;10.80;2.47;;;;;;;19.30;nan;102258.41;10359320;28;20498;-82
2023/10/05 15:12:59;;;;;;;9.80;2.70;;;;;;;19.04;nan;102246.91;10373014;28;20549;-83
2023/10/05 15:17:59;;;;;;;7.20;3.00;;;;;;;18.24;nan;102260.78;10373179;28;20034;-83
2023/10/05 15:23:00;;;;;;;10.10;2.92;;;;;;;18.03;nan;102254.72;10358678;28;20363;-82
2023/10/05 15:28:00;;;;;;;7.13;3.05;;;;;;;17.47;nan;102256.84;10357963;28;20069;-82
2023/10/05 15:33:02;;;;;;;7.32;2.22;;;;;;;17.13;nan;102247.50;10362952;28;20508;-84
2023/10/05 15:38:06;;;;;;;6.53;2.05;;;;;;;17.03;nan;102232.97;10356667;28;20042;-83
2023/10/05 15:43:06;;;;;;;7.28;2.95;;;;;;;16.63;nan;102244.44;10350881;28;20038;-83
2023/10/05 15:48:10;;;;;;;11.25;2.47;;;;;;;16.21;nan;102229.31;10365190;28;20120;-82
2023/10/05 15:53:10;;;;;;;5.47;2.08;;;;;;;15.78;nan;102218.50;10347523;28;20033;-82
2023/10/05 15:58:12;;;;;;;8.40;4.13;;;;;;;15.43;nan;102230.00;10379809;28;20057;-83
2023/10/05 16:03:14;;;;;;;11.98;3.78;;;;;;;15.42;nan;102231.72;10364716;28;20112;-82
2023/10/05 16:08:17;;;;;;;8.77;2.85;;;;;;;15.45;nan;102225.72;10363643;28;20030;-82
2023/10/05 16:13:17;;;;;;;5.45;2.67;;;;;;;15.27;nan;102224.84;10346182;28;20061;-82
2023/10/05 16:18:18;;;;;;;9.40;4.75;;;;;;;15.04;nan;102222.78;10363906;28;20104;-82
2023/10/05 16:23:19;;;;;;;12.50;2.83;;;;;;;14.73;nan;102230.03;10362462;28;20034;-83
2023/10/05 16:28:20;;;;;;;7.20;2.45;;;;;;;14.39;nan;102218.56;10363205;28;20070;-83
2023/10/05 16:33:20;;;;;;;10.13;2.53;;;;;;;14.08;nan;102234.44;10364529;28;20483;-82
2023/10/05 16:38:24;;;;;;;10.85;4.43;;;;;;;14.01;nan;102229.66;10361169;28;20050;-82
2023/10/05 16:43:25;;;;;;;11.32;4.38;;;;;;;13.76;nan;102229.19;10362393;28;20107;-82
2023/10/05 16:48:26;;;;;;;8.32;2.30;;;;;;;13.56;nan;102230.69;10360403;28;20107;-82
2023/10/05 16:53:27;;;;;;;5.32;2.72;;;;;;;13.27;nan;102227.25;10361383;28;20049;-82
2023/10/05 16:58:29;;;;;;;7.88;2.72;;;;;;;13.00;nan;102231.78;10376010;28;20520;-83
2023/10/05 17:03:29;;;;;;;7.30;2.47;;;;;;;12.74;nan;102241.63;10361039;28;20406;-82
2023/10/05 17:08:32;;;;;;;8.80;2.92;;;;;;;12.44;nan;102247.72;10357792;28;20045;-82
2023/10/05 17:13:32;;;;;;;6.65;2.55;;;;;;;12.28;nan;102263.34;10361622;28;20046;-82
2023/10/05 17:18:33;;;;;;;10.05;4.15;;;;;;;12.05;nan;102257.53;10361461;28;20125;-83
2023/10/05 17:23:33;;;;;;;9.40;3.45;;;;;;;11.91;nan;102267.09;10359629;28;20044;-82
2023/10/05 17:28:34;;;;;;;6.78;3.35;;;;;;;11.72;nan;102263.28;10361065;28;20069;-83
2023/10/05 17:33:34;;;;;;;5.63;2.83;;;;;;;11.54;nan;102268.22;10359608;28;20122;-82
2023/10/05 17:38:35;;;;;;;29.35;4.20;;;;;;;11.46;nan;102272.94;10356117;28;20096;-82
2023/10/05 17:43:36;;;;;;;9.05;3.22;;;;;;;11.30;nan;102283.22;10325782;28;20465;-83
2023/10/05 17:48:36;;;;;;;9.23;3.55;;;;;;;11.13;nan;102282.97;10358489;28;20081;-82
2023/10/05 17:53:37;;;;;;;6.53;2.65;;;;;;;11.06;nan;102283.38;10352838;28;20117;-84
2023/10/05 17:58:39;;;;;;;7.85;2.92;;;;;;;10.92;nan;102285.06;10343384;28;20054;-81
2023/10/05 18:03:39;;;;;;;6.85;2.88;;;;;;;10.83;nan;102287.03;10353181;28;20112;-82
2023/10/05 18:08:40;;;;;;;9.82;3.47;;;;;;;10.79;nan;102278.03;10361049;28;20073;-82
2023/10/05 18:13:40;;;;;;;10.15;4.38;;;;;;;10.78;nan;102267.47;10355564;28;20117;-83
2023/10/05 18:18:41;;;;;;;14.82;4.60;;;;;;;10.74;nan;102263.72;10372812;28;20103;-83
2023/10/05 18:23:41;;;;;;;7.97;3.58;;;;;;;10.64;nan;102280.53;10341103;28;20048;-82
2023/10/05 18:28:42;;;;;;;10.35;4.38;;;;;;;10.57;nan;102265.19;10354526;28;20132;-81
2023/10/05 18:33:43;;;;;;;12.02;4.22;;;;;;;10.47;nan;102266.22;10357207;28;20057;-82
2023/10/05 18:38:43;;;;;;;8.27;3.83;;;;;;;10.37;nan;102271.56;10391926;28;20058;-82
2023/10/05 18:43:44;;;;;;;10.52;3.30;;;;;;;10.29;nan;102274.56;10341155;28;20046;-82
2023/10/05 18:48:44;;;;;;;10.30;4.75;;;;;;;10.23;nan;102276.75;10342870;28;20033;-82
2023/10/05 18:53:45;;;;;;;7.72;3.85;;;;;;;10.14;nan;102282.22;10374000;28;20065;-82
2023/10/05 18:58:45;;;;;;;8.98;3.75;;;;;;;10.10;nan;102284.50;10390147;28;20121;-83
2023/10/05 19:03:46;;;;;;;14.82;5.10;;;;;;;10.05;nan;102293.72;10372305;28;20075;-82
2023/10/05 19:08:46;;;;;;;8.35;3.63;;;;;;;10.02;nan;102299.66;10349709;28;20046;-82
2023/10/05 19:13:47;;;;;;;10.70;4.00;;;;;;;10.04;nan;102286.66;10345669;28;20069;-83
2023/10/05 19:18:48;;;;;;;15.35;5.78;;;;;;;10.04;nan;102297.13;10371316;28;20054;-82
2023/10/05 19:23:48;;;;;;;9.98;3.58;;;;;;;10.04;nan;102294.53;10367674;28;20030;-83
2023/10/05 19:28:49;;;;;;;9.75;4.05;;;;;;;9.97;nan;102295.81;10348943;28;20111;-82
2023/10/05 19:33:49;;;;;;;9.00;4.22;;;;;;;9.95;nan;102292.16;10380485;28;20389;-83
2023/10/05 19:38:50;;;;;;;12.43;3.67;;;;;;;9.93;nan;102293.75;10368391;28;20084;-83
2023/10/05 19:43:52;;;;;;;8.25;3.65;;;;;;;9.91;nan;102292.72;10363712;28;20133;-83
2023/10/05 19:48:52;;;;;;;10.82;3.63;;;;;;;9.99;nan;102292.47;10366586;28;20129;-83
2023/10/05 19:53:52;;;;;;;8.50;3.60;;;;;;;10.13;nan;102287.34;10366965;28;20524;-83
2023/10/05 19:58:53;;;;;;;11.98;4.75;;;;;;;10.17;nan;102289.38;10380946;28;20049;-82
2023/10/05 20:03:53;;;;;;;6.13;3.40;;;;;;;10.18;nan;102280.72;10396585;28;20073;-84
2023/10/05 20:08:54;;;;;;;8.70;3.80;;;;;;;10.18;nan;102282.44;10375109;28;20276;-84
2023/10/05 20:13:54;;;;;;;9.90;3.40;;;;;;;10.10;nan;102292.34;10363058;28;20045;-85
2023/10/05 20:18:55;;;;;;;10.20;3.70;;;;;;;9.98;nan;102292.38;10380037;28;20125;-85
2023/10/05 20:23:56;;;;;;;9.05;3.72;;;;;;;9.81;nan;102291.13;10363004;28;20046;-85
2023/10/05 20:28:56;;;;;;;15.85;5.85;;;;;;;9.66;nan;102288.31;10385748;28;20442;-85
2023/10/05 20:33:57;;;;;;;10.38;3.92;;;;;;;9.49;nan;102303.66;10362035;28;20069;-84
2023/10/05 20:38:57;;;;;;;15.32;5.05;;;;;;;9.39;nan;102304.63;10345717;28;20030;-83
2023/10/05 20:43:58;;;;;;;7.65;4.65;;;;;;;9.32;nan;102318.03;10364379;28;20044;-83
2023/10/05 20:48:58;;;;;;;10.07;4.13;;;;;;;9.29;nan;102315.19;10360800;28;20390;-82
2023/10/05 20:54:00;;;;;;;10.13;4.78;;;;;;;9.29;nan;102324.75;10395492;28;20121;-83
2023/10/05 20:59:01;;;;;;;12.82;5.47;;;;;;;9.28;nan;102312.47;10361450;28;20037;-83
2023/10/05 21:04:02;;;;;;;18.85;8.07;;;;;;;9.29;nan;102311.69;10378667;28;20447;-83
2023/10/05 21:09:04;;;;;;;7.50;3.78;;;;;;;9.27;nan;102314.16;10360803;28;20394;-84
2023/10/05 21:14:04;;;;;;;17.23;6.07;;;;;;;9.18;nan;102321.28;10344459;28;20057;-82
2023/10/05 21:19:08;;;;;;;12.35;6.15;;;;;;;9.16;nan;102312.44;10340949;28;20101;-83
2023/10/05 21:24:08;;;;;;;24.02;5.15;;;;;;;9.19;nan;102299.59;10362163;28;20548;-83
2023/10/05 21:29:09;;;;;;;7.57;4.57;;;;;;;9.25;nan;102306.22;10343806;28;20045;-83
2023/10/05 21:34:09;;;;;;;13.43;5.95;;;;;;;9.24;nan;102301.78;10393629;28;20464;-83
2023/10/05 21:39:12;;;;;;;11.10;5.53;;;;;;;9.11;nan;102306.88;10360869;28;20065;-83
2023/10/05 21:44:13;;;;;;;17.98;5.72;;;;;;;9.06;nan;102293.44;10342955;28;20038;-83
2023/10/05 21:49:13;;;;;;;12.07;5.20;;;;;;;9.15;nan;102280.19;10321650;28;20849;-83
2023/10/05 21:54:14;;;;;;;10.30;5.10;;;;;;;8.99;nan;102279.81;10319529;28;20044;-84
2023/10/05 21:59:14;;;;;;;13.30;5.07;;;;;;;8.91;nan;102277.53;10318957;28;20095;-84
2023/10/05 22:04:15;;;;;;;13.00;5.85;;;;;;;8.88;nan;102277.28;10323890;28;20046;-83
2023/10/05 22:09:15;;;;;;;15.02;6.20;;;;;;;8.80;nan;102286.22;10316917;28;20046;-83
2023/10/05 22:14:16;;;;;;;13.80;5.82;;;;;;;8.77;nan;102286.00;10330134;28;20045;-83
2023/10/05 22:19:17;;;;;;;12.95;6.43;;;;;;;8.75;nan;102278.03;10328608;28;20077;-83
2023/10/05 22:24:17;;;;;;;19.20;6.70;;;;;;;8.69;nan;102282.75;10311034;28;20046;-83
2023/10/05 22:29:18;;;;;;;17.05;6.18;;;;;;;8.73;nan;102279.59;10329918;28;20046;-84
2023/10/05 22:34:19;;;;;;;11.90;5.90;;;;;;;8.69;nan;102284.47;10311911;28;20048;-83
2023/10/05 22:39:20;;;;;;;14.27;5.88;;;;;;;8.61;nan;102281.25;10314746;28;20042;-83
2023/10/05 22:44:21;;;;;;;13.77;6.20;;;;;;;8.61;nan;102286.47;10328633;28;20457;-84
2023/10/05 22:49:21;;;;;;;13.38;6.10;;;;;;;8.62;nan;102284.00;10309479;28;20064;-83
2023/10/05 22:54:22;;;;;;;14.80;6.43;;;;;;;8.60;nan;102279.44;10312289;28;20049;-83
2023/10/05 22:59:23;;;;;;;13.52;6.82;;;;;;;8.53;nan;102278.06;10332554;28;20050;-83
2023/10/05 23:04:23;;;;;;;14.55;6.60;;;;;;;8.51;nan;102274.44;10300794;28;20685;-83
2023/10/05 23:09:25;;;;;;;19.52;7.57;;;;;;;8.55;nan;102278.16;10344435;28;20047;-83
2023/10/05 23:14:26;;;;;;;27.63;8.32;;;;;;;8.54;nan;102278.97;10311628;28;20042;-84
2023/10/05 23:19:27;;;;;;;22.50;8.95;;;;;;;8.52;nan;102279.75;10313994;28;20054;-84
2023/10/05 23:24:30;;;;;;;12.43;6.78;;;;;;;8.45;nan;102280.00;10340651;28;20107;-84
2023/10/05 23:29:31;;;;;;;16.88;7.47;;;;;;;8.47;nan;102278.44;10314090;28;20506;-84
2023/10/05 23:34:35;;;;;;;13.02;7.05;;;;;;;8.50;nan;102270.88;10327428;28;20417;-83
2023/10/05 23:39:36;;;;;;;14.50;6.53;;;;;;;8.52;nan;102273.63;10312937;28;20037;-84
2023/10/05 23:44:37;;;;;;;10.55;6.97;;;;;;;8.54;nan;102284.19;10316684;28;20741;-83
2023/10/05 23:49:41;;;;;;;15.40;8.00;;;;;;;8.56;nan;102283.53;10327008;28;20045;-83
2023/10/05 23:54:41;;;;;;;16.60;11.07;;;;;;;8.69;nan;102279.25;10304593;28;20064;-83